Weather History for South Pass, WY

Change the Weather History Date:

Monday, November 18, 2013

  Actual Average (KLND) Record (KLND)
Temperature  
Mean Temperature 29 °F 30 °F  
Max Temperature 41 °F 41 °F 65 °F (1995)
Min Temperature 17 °F 18 °F -5 °F (1980)
Degree Days  
Heating Degree Days 36 35  
Month to date heating degree days 548  
Since 1 July heating degree days 1409  
Cooling Degree Days 0 0  
Month to date cooling degree days 0  
Year to date cooling degree days 472  
Moisture  
Dew Point 16 °F    
Average Humidity 55    
Maximum Humidity 93    
Minimum Humidity 31    
Precipitation  
Precipitation 0.00 in 0.03 in 0.66 in (1953)
Month to date precipitation 0.55  
Year to date precipitation 11.77  
Snow  
Snow 0.00 in 0.50 in - ()
Month to date snowfall 7.8  
Since 1 July snowfall 20.3  
Since 1 September snowfall 20.3  
Snow Depth -    
Sea Level Pressure  
Sea Level Pressure 30.02 in    
Wind  
Wind Speed 13 mph (WSW)    
Max Wind Speed 26 mph    
Max Gust Speed 36 mph    
Visibility 10 miles    
Events      
T = Trace of Precipitation, MM = Missing Value Source: NWS Daily Summary

Daily Weather History Graph

Daily Weather History Graph

Search for Another Location

Airport:

Trip Planner

Search our weather history database for the weather conditions in past years. The results will help you decide how hot, cold, wet, or windy it might be!

Date:

Astronomy

Nov. 18, 2013 Rise Set
Actual Time 7:10 AM MST 4:49 PM MST
Civil Twilight 6:39 AM MST 5:20 PM MST
Nautical Twilight 6:05 AM MST 5:54 PM MST
Astronomical Twilight 5:32 AM MST 6:28 PM MST
Moon 5:54 PM MST (11/18) 8:02 AM MST (11/18)
Length of Visible Light 10h 40m
Length of Day
9h 39m
Full, 99% of the Moon is Illuminated
Nov 18
Full
Nov 25
Last Quarter
Dec 2
New
Dec 9
First Quarter
Dec 17
Full

Hourly Weather History & Observations

Time (MST) Temp. Windchill Dew Point Humidity Pressure Visibility Wind Dir Wind Speed Gust Speed Precip Events Conditions
12:15 AM 28.4 °F 24.6 °F 14.0 °F 55% - 10.0 mi South 3.5 mph - N/A   Clear
12:35 AM 28.4 °F 24.6 °F 14.0 °F 55% - 10.0 mi West 3.5 mph - N/A   Clear
12:55 AM 28.4 °F 21.2 °F 14.0 °F 55% 29.96 in 10.0 mi West 6.9 mph 16.1 mph N/A   Clear
1:15 AM 28.4 °F 14.1 °F 17.6 °F 64% - 10.0 mi WSW 24.2 mph 35.7 mph N/A   Clear
1:35 AM 24.8 °F 10.3 °F 17.6 °F 74% - 7.0 mi WSW 20.7 mph 32.2 mph N/A   Clear
1:55 AM 23.0 °F 13.9 °F 17.6 °F 80% - 10.0 mi SSW 8.1 mph - N/A   Clear
2:15 AM 21.2 °F 12.6 °F 17.6 °F 86% - 10.0 mi SSW 6.9 mph - N/A   Clear
2:35 AM 19.4 °F 10.4 °F 15.8 °F 86% - 10.0 mi SSW 6.9 mph - N/A   Clear
2:55 AM 19.4 °F 9.5 °F 15.8 °F 86% - 10.0 mi SSW 8.1 mph 16.1 mph N/A   Clear
3:15 AM 19.4 °F 8.6 °F 15.8 °F 86% - 10.0 mi SSW 9.2 mph 18.4 mph N/A   Clear
3:35 AM 17.6 °F 5.7 °F 14.0 °F 86% - 10.0 mi SSW 10.4 mph 16.1 mph N/A   Clear
3:55 AM 17.6 °F 7.3 °F 15.8 °F 93% - 10.0 mi SSW 8.1 mph - N/A   Clear
4:15 AM 21.2 °F 10.1 °F 17.6 °F 86% - 10.0 mi SW 10.4 mph - N/A   Clear
4:35 AM 23.0 °F 11.7 °F 15.8 °F 74% - 10.0 mi SW 11.5 mph - N/A   Clear
4:55 AM 23.0 °F 11.1 °F 17.6 °F 80% - 10.0 mi SW 12.7 mph - N/A   Clear
5:15 AM 23.0 °F 14.7 °F 17.6 °F 80% - 10.0 mi SSW 6.9 mph 16.1 mph N/A   Clear
5:35 AM 21.2 °F 10.9 °F 17.6 °F 86% - 10.0 mi SSW 9.2 mph - N/A   Clear
5:55 AM 19.4 °F 7.9 °F 15.8 °F 86% - 10.0 mi SSW 10.4 mph 17.3 mph N/A   Clear
6:15 AM 23.0 °F 9.6 °F 15.8 °F 74% - 10.0 mi SW 16.1 mph 20.7 mph N/A   Clear
6:35 AM 23.0 °F 9.2 °F 15.8 °F 74% - 10.0 mi SW 17.3 mph 23.0 mph N/A   Clear
6:55 AM 23.0 °F 8.7 °F 14.0 °F 68% - 10.0 mi WSW 18.4 mph 21.9 mph N/A   Clear
7:15 AM 30.2 °F 16.8 °F 14.0 °F 51% - 10.0 mi WSW 23.0 mph 28.8 mph N/A   Clear
7:35 AM 30.2 °F 16.8 °F 14.0 °F 51% - 10.0 mi WSW 23.0 mph 27.6 mph N/A   Clear
7:55 AM 30.2 °F 16.5 °F 14.0 °F 51% 30.04 in 10.0 mi WSW 24.2 mph 31.1 mph N/A   Clear
8:15 AM 30.2 °F 16.2 °F 14.0 °F 51% - 10.0 mi WSW 25.3 mph 31.1 mph N/A   Clear
8:35 AM 32.0 °F 18.9 °F 12.2 °F 44% - 10.0 mi WSW 24.2 mph 33.4 mph N/A   Clear
8:55 AM 32.0 °F 18.6 °F 12.2 °F 44% - 10.0 mi WSW 25.3 mph 32.2 mph N/A   Clear
9:15 AM 32.0 °F 18.6 °F 12.2 °F 44% - 10.0 mi WSW 25.3 mph 29.9 mph N/A   Clear
9:35 AM 32.0 °F 18.4 °F 12.2 °F 44% - 10.0 mi WSW 26.5 mph 29.9 mph N/A   Clear
9:55 AM 32.0 °F 19.2 °F 12.2 °F 44% 30.06 in 10.0 mi West 23.0 mph 31.1 mph N/A   Clear
10:15 AM 33.8 °F 22.2 °F 12.2 °F 41% 30.07 in 10.0 mi West 20.7 mph 25.3 mph N/A   Clear
10:35 AM 35.6 °F 25.9 °F 14.0 °F 41% 30.07 in 10.0 mi West 16.1 mph - N/A   Clear
10:55 AM 37.4 °F 29.3 °F 12.2 °F 36% 30.08 in 10.0 mi West 12.7 mph 18.4 mph N/A   Clear
11:15 AM 37.4 °F 29.8 °F 12.2 °F 36% 30.08 in 10.0 mi West 11.5 mph 18.4 mph N/A   Clear
11:35 AM 37.4 °F 29.8 °F 14.0 °F 38% 30.07 in 10.0 mi WSW 11.5 mph - N/A   Clear
11:55 AM 37.4 °F 28.5 °F 14.0 °F 38% 30.06 in 10.0 mi WSW 15.0 mph - N/A   Clear
12:15 PM 37.4 °F 26.6 °F 17.6 °F 45% 30.05 in 10.0 mi WSW 21.9 mph 25.3 mph N/A   Clear
12:35 PM 37.4 °F 27.2 °F 17.6 °F 45% 30.05 in 10.0 mi WSW 19.6 mph 26.5 mph N/A   Clear
12:55 PM 37.4 °F 27.2 °F 19.4 °F 48% 30.04 in 10.0 mi WSW 19.6 mph 24.2 mph N/A   Clear
1:15 PM 37.4 °F 28.2 °F 19.4 °F 48% 30.05 in 10.0 mi WSW 16.1 mph 23.0 mph N/A   Clear
1:35 PM 39.2 °F 31.2 °F 19.4 °F 45% 30.04 in 10.0 mi WSW 13.8 mph 18.4 mph N/A   Clear
1:55 PM 41.0 °F 33.5 °F 15.8 °F 36% 30.03 in 10.0 mi West 13.8 mph 20.7 mph N/A   Clear
2:15 PM 41.0 °F 32.2 °F 12.2 °F 31% 30.01 in 10.0 mi WSW 18.4 mph 26.5 mph N/A   Clear
2:35 PM 41.0 °F 30.7 °F 14.0 °F 33% 30.01 in 10.0 mi WSW 25.3 mph 31.1 mph N/A   Clear
2:55 PM 39.2 °F 28.7 °F 14.0 °F 36% 30.02 in 10.0 mi WSW 23.0 mph - N/A   Clear
3:15 PM 41.0 °F 32.2 °F 14.0 °F 33% 30.03 in 10.0 mi WSW 18.4 mph - N/A   Clear
3:35 PM 39.2 °F 30.5 °F 17.6 °F 42% 30.04 in 10.0 mi WSW 16.1 mph - N/A   Clear
3:55 PM 35.6 °F 25.9 °F 19.4 °F 52% 30.04 in 10.0 mi WSW 16.1 mph - N/A   Clear
4:15 PM 35.6 °F 25.2 °F 19.4 °F 52% 30.04 in 10.0 mi WSW 18.4 mph - N/A   Clear
4:35 PM 33.8 °F 22.2 °F 19.4 °F 56% 30.03 in 10.0 mi WSW 20.7 mph - N/A   Clear
4:55 PM 33.8 °F 22.2 °F 19.4 °F 56% 30.02 in 10.0 mi WSW 20.7 mph 26.5 mph N/A   Clear
5:15 PM 33.8 °F 22.2 °F 14.0 °F 44% 30.03 in 10.0 mi WSW 20.7 mph 25.3 mph N/A   Clear
5:35 PM 33.8 °F 22.5 °F 12.2 °F 41% 30.03 in 10.0 mi WSW 19.6 mph - N/A   Clear
5:55 PM 33.8 °F 22.2 °F 12.2 °F 41% 30.03 in 10.0 mi WSW 20.7 mph 26.5 mph N/A   Clear
6:15 PM 33.8 °F 22.8 °F 12.2 °F 41% 30.03 in 10.0 mi WSW 18.4 mph 24.2 mph N/A   Clear
6:35 PM 33.8 °F 23.2 °F 12.2 °F 41% 30.03 in 10.0 mi WSW 17.3 mph 23.0 mph N/A   Clear
6:55 PM 33.8 °F 23.2 °F 14.0 °F 44% 30.02 in 10.0 mi WSW 17.3 mph - N/A   Clear
7:15 PM 33.8 °F 23.5 °F 14.0 °F 44% 30.02 in 10.0 mi WSW 16.1 mph - N/A   Clear
7:35 PM 33.8 °F 24.3 °F 15.8 °F 48% 30.00 in 10.0 mi WSW 13.8 mph - N/A   Clear
7:55 PM 35.6 °F 25.5 °F 15.8 °F 44% 30.00 in 10.0 mi West 17.3 mph 21.9 mph N/A   Clear
8:15 PM 35.6 °F 25.5 °F 14.0 °F 41% 30.00 in 10.0 mi West 17.3 mph 20.7 mph N/A   Clear
8:35 PM 37.4 °F 28.2 °F 14.0 °F 38% 29.99 in 10.0 mi West 16.1 mph 23.0 mph N/A   Clear
8:55 PM 35.6 °F 25.9 °F 14.0 °F 41% 29.99 in 10.0 mi West 16.1 mph 23.0 mph N/A   Clear
9:15 PM 35.6 °F 26.6 °F 14.0 °F 41% 29.99 in 10.0 mi WSW 13.8 mph - N/A   Clear
9:35 PM 32.0 °F 23.0 °F 17.6 °F 55% 30.00 in 10.0 mi SW 11.5 mph - N/A   Clear
9:55 PM 32.0 °F 23.6 °F 17.6 °F 55% 30.00 in 10.0 mi WSW 10.4 mph - N/A   Clear
10:15 PM 32.0 °F 23.6 °F 17.6 °F 55% 29.99 in 10.0 mi SW 10.4 mph - N/A   Clear
10:35 PM 32.0 °F 24.2 °F 19.4 °F 60% 29.98 in 10.0 mi WSW 9.2 mph - N/A   Clear
10:55 PM 32.0 °F 24.8 °F 21.2 °F 64% 29.98 in 10.0 mi SW 8.1 mph - N/A   Clear
11:15 PM 32.0 °F 25.6 °F 23.0 °F 69% 29.98 in 10.0 mi SW 6.9 mph - N/A   Clear
11:35 PM 32.0 °F 25.6 °F 23.0 °F 69% 29.96 in 10.0 mi WSW 6.9 mph - N/A   Clear
11:55 PM 32.0 °F 24.8 °F 23.0 °F 69% 29.95 in 10.0 mi WSW 8.1 mph - N/A   Clear